sensor_id;sensor_type;location;lat;lon;timestamp;P1;durP1;ratioP1;P2;durP2;ratioP2
68985;SDS011;56035;37.534;-122.308;2023-04-24T00:01:25;4.10;;;1.02;;
68985;SDS011;56035;37.534;-122.308;2023-04-24T00:03:52;4.07;;;0.90;;
68985;SDS011;56035;37.534;-122.308;2023-04-24T00:06:18;5.90;;;1.23;;
68985;SDS011;56035;37.534;-122.308;2023-04-24T00:08:44;4.68;;;1.02;;
68985;SDS011;56035;37.534;-122.308;2023-04-24T00:11:10;3.53;;;0.90;;
68985;SDS011;56035;37.534;-122.308;2023-04-24T00:13:37;5.30;;;0.90;;
68985;SDS011;56035;37.534;-122.308;2023-04-24T00:18:30;2.87;;;0.90;;
68985;SDS011;56035;37.534;-122.308;2023-04-24T00:20:56;4.40;;;0.80;;
68985;SDS011;56035;37.534;-122.308;2023-04-24T00:23:23;6.37;;;1.30;;
68985;SDS011;56035;37.534;-122.308;2023-04-24T00:25:50;4.57;;;0.80;;
68985;SDS011;56035;37.534;-122.308;2023-04-24T00:28:16;4.75;;;0.82;;
68985;SDS011;56035;37.534;-122.308;2023-04-24T00:30:42;4.43;;;0.80;;
68985;SDS011;56035;37.534;-122.308;2023-04-24T00:33:08;2.97;;;0.90;;
68985;SDS011;56035;37.534;-122.308;2023-04-24T00:35:35;3.80;;;1.23;;
68985;SDS011;56035;37.534;-122.308;2023-04-24T00:38:01;3.58;;;1.00;;
68985;SDS011;56035;37.534;-122.308;2023-04-24T00:40:27;5.25;;;1.33;;
68985;SDS011;56035;37.534;-122.308;2023-04-24T00:42:54;5.32;;;1.17;;
68985;SDS011;56035;37.534;-122.308;2023-04-24T00:45:20;5.43;;;1.42;;
68985;SDS011;56035;37.534;-122.308;2023-04-24T00:47:47;5.88;;;1.35;;
68985;SDS011;56035;37.534;-122.308;2023-04-24T00:50:15;5.63;;;1.27;;
68985;SDS011;56035;37.534;-122.308;2023-04-24T00:55:07;5.93;;;1.27;;
68985;SDS011;56035;37.534;-122.308;2023-04-24T00:57:34;6.78;;;1.70;;
68985;SDS011;56035;37.534;-122.308;2023-04-24T01:00:00;7.80;;;1.48;;
68985;SDS011;56035;37.534;-122.308;2023-04-24T01:02:28;6.07;;;1.53;;
68985;SDS011;56035;37.534;-122.308;2023-04-24T01:04:55;5.55;;;1.20;;
68985;SDS011;56035;37.534;-122.308;2023-04-24T01:07:22;5.75;;;1.60;;
68985;SDS011;56035;37.534;-122.308;2023-04-24T01:09:48;6.53;;;1.42;;
68985;SDS011;56035;37.534;-122.308;2023-04-24T01:12:17;7.63;;;1.50;;
68985;SDS011;56035;37.534;-122.308;2023-04-24T01:14:44;7.35;;;1.20;;
68985;SDS011;56035;37.534;-122.308;2023-04-24T01:17:11;7.07;;;1.33;;
68985;SDS011;56035;37.534;-122.308;2023-04-24T01:19:37;7.78;;;1.60;;
68985;SDS011;56035;37.534;-122.308;2023-04-24T01:22:08;8.93;;;1.58;;
68985;SDS011;56035;37.534;-122.308;2023-04-24T01:24:46;9.40;;;1.60;;
68985;SDS011;56035;37.534;-122.308;2023-04-24T01:27:12;8.13;;;1.48;;
68985;SDS011;56035;37.534;-122.308;2023-04-24T01:29:39;9.30;;;2.05;;
68985;SDS011;56035;37.534;-122.308;2023-04-24T01:32:05;7.57;;;1.80;;
68985;SDS011;56035;37.534;-122.308;2023-04-24T01:34:32;9.85;;;2.15;;
68985;SDS011;56035;37.534;-122.308;2023-04-24T01:36:59;7.50;;;1.70;;
68985;SDS011;56035;37.534;-122.308;2023-04-24T01:39:26;6.60;;;2.30;;
68985;SDS011;56035;37.534;-122.308;2023-04-24T01:41:54;8.93;;;1.87;;
68985;SDS011;56035;37.534;-122.308;2023-04-24T01:44:20;12.07;;;2.43;;
68985;SDS011;56035;37.534;-122.308;2023-04-24T01:46:47;9.90;;;2.17;;
68985;SDS011;56035;37.534;-122.308;2023-04-24T01:49:13;13.55;;;2.22;;
68985;SDS011;56035;37.534;-122.308;2023-04-24T01:51:39;10.02;;;1.95;;
68985;SDS011;56035;37.534;-122.308;2023-04-24T01:54:06;13.15;;;2.97;;
68985;SDS011;56035;37.534;-122.308;2023-04-24T01:56:35;10.40;;;2.00;;
68985;SDS011;56035;37.534;-122.308;2023-04-24T01:59:08;11.10;;;2.63;;
68985;SDS011;56035;37.534;-122.308;2023-04-24T02:01:36;10.77;;;2.30;;
68985;SDS011;56035;37.534;-122.308;2023-04-24T02:04:04;12.87;;;2.53;;
68985;SDS011;56035;37.534;-122.308;2023-04-24T02:06:31;14.27;;;2.30;;
68985;SDS011;56035;37.534;-122.308;2023-04-24T02:08:58;11.82;;;2.20;;
68985;SDS011;56035;37.534;-122.308;2023-04-24T02:11:25;9.63;;;2.23;;
68985;SDS011;56035;37.534;-122.308;2023-04-24T02:13:52;6.47;;;1.83;;
68985;SDS011;56035;37.534;-122.308;2023-04-24T02:16:18;9.90;;;2.03;;
68985;SDS011;56035;37.534;-122.308;2023-04-24T02:18:44;13.02;;;2.60;;
68985;SDS011;56035;37.534;-122.308;2023-04-24T02:21:11;15.70;;;2.70;;
68985;SDS011;56035;37.534;-122.308;2023-04-24T02:23:37;13.57;;;2.22;;
68985;SDS011;56035;37.534;-122.308;2023-04-24T02:26:03;10.13;;;2.35;;
68985;SDS011;56035;37.534;-122.308;2023-04-24T02:28:30;10.95;;;2.85;;
68985;SDS011;56035;37.534;-122.308;2023-04-24T02:30:56;16.25;;;2.92;;
68985;SDS011;56035;37.534;-122.308;2023-04-24T02:33:22;10.90;;;2.35;;
68985;SDS011;56035;37.534;-122.308;2023-04-24T02:35:48;13.30;;;2.97;;
68985;SDS011;56035;37.534;-122.308;2023-04-24T02:38:15;18.10;;;2.60;;
68985;SDS011;56035;37.534;-122.308;2023-04-24T02:40:41;17.70;;;3.08;;
68985;SDS011;56035;37.534;-122.308;2023-04-24T02:43:07;13.38;;;2.72;;
68985;SDS011;56035;37.534;-122.308;2023-04-24T02:45:33;17.98;;;2.95;;
68985;SDS011;56035;37.534;-122.308;2023-04-24T02:48:00;17.40;;;2.60;;
68985;SDS011;56035;37.534;-122.308;2023-04-24T02:50:26;17.08;;;3.17;;
68985;SDS011;56035;37.534;-122.308;2023-04-24T02:52:52;20.23;;;3.28;;
68985;SDS011;56035;37.534;-122.308;2023-04-24T02:55:18;18.55;;;3.72;;
68985;SDS011;56035;37.534;-122.308;2023-04-24T02:57:45;19.02;;;3.55;;
68985;SDS011;56035;37.534;-122.308;2023-04-24T03:00:11;16.80;;;3.13;;
68985;SDS011;56035;37.534;-122.308;2023-04-24T03:02:38;14.10;;;3.07;;
68985;SDS011;56035;37.534;-122.308;2023-04-24T03:05:05;23.90;;;3.47;;
68985;SDS011;56035;37.534;-122.308;2023-04-24T03:07:31;16.65;;;3.03;;
68985;SDS011;56035;37.534;-122.308;2023-04-24T03:09:57;16.98;;;3.63;;
68985;SDS011;56035;37.534;-122.308;2023-04-24T03:12:23;16.73;;;2.95;;
68985;SDS011;56035;37.534;-122.308;2023-04-24T03:14:50;11.68;;;2.20;;
68985;SDS011;56035;37.534;-122.308;2023-04-24T03:17:16;15.73;;;2.90;;
68985;SDS011;56035;37.534;-122.308;2023-04-24T03:19:42;21.48;;;2.85;;
68985;SDS011;56035;37.534;-122.308;2023-04-24T03:22:08;18.50;;;3.38;;
68985;SDS011;56035;37.534;-122.308;2023-04-24T03:24:35;17.90;;;4.05;;
68985;SDS011;56035;37.534;-122.308;2023-04-24T03:27:01;25.55;;;4.75;;
68985;SDS011;56035;37.534;-122.308;2023-04-24T03:29:27;16.10;;;3.22;;
68985;SDS011;56035;37.534;-122.308;2023-04-24T03:31:53;22.23;;;3.45;;
68985;SDS011;56035;37.534;-122.308;2023-04-24T03:34:19;21.75;;;3.53;;
68985;SDS011;56035;37.534;-122.308;2023-04-24T03:36:46;18.08;;;3.58;;
68985;SDS011;56035;37.534;-122.308;2023-04-24T03:39:15;18.87;;;3.93;;
68985;SDS011;56035;37.534;-122.308;2023-04-24T03:41:41;20.33;;;3.58;;
68985;SDS011;56035;37.534;-122.308;2023-04-24T03:44:07;22.67;;;4.90;;
68985;SDS011;56035;37.534;-122.308;2023-04-24T03:46:33;22.52;;;4.22;;
68985;SDS011;56035;37.534;-122.308;2023-04-24T03:48:59;21.35;;;3.30;;
68985;SDS011;56035;37.534;-122.308;2023-04-24T03:51:26;17.33;;;4.05;;
68985;SDS011;56035;37.534;-122.308;2023-04-24T03:53:53;18.90;;;3.87;;
68985;SDS011;56035;37.534;-122.308;2023-04-24T03:56:19;19.20;;;4.15;;
68985;SDS011;56035;37.534;-122.308;2023-04-24T03:58:46;24.05;;;4.93;;
68985;SDS011;56035;37.534;-122.308;2023-04-24T04:01:12;21.58;;;3.30;;
68985;SDS011;56035;37.534;-122.308;2023-04-24T04:03:38;21.77;;;4.15;;
68985;SDS011;56035;37.534;-122.308;2023-04-24T04:06:05;20.23;;;4.47;;
68985;SDS011;56035;37.534;-122.308;2023-04-24T04:08:31;21.60;;;4.35;;
68985;SDS011;56035;37.534;-122.308;2023-04-24T04:10:57;21.67;;;4.40;;
68985;SDS011;56035;37.534;-122.308;2023-04-24T04:13:23;21.63;;;4.25;;
68985;SDS011;56035;37.534;-122.308;2023-04-24T04:15:50;26.10;;;5.10;;
68985;SDS011;56035;37.534;-122.308;2023-04-24T04:18:16;22.05;;;4.15;;
68985;SDS011;56035;37.534;-122.308;2023-04-24T04:20:42;21.25;;;3.83;;
68985;SDS011;56035;37.534;-122.308;2023-04-24T04:23:08;16.60;;;3.35;;
68985;SDS011;56035;37.534;-122.308;2023-04-24T04:25:35;21.05;;;3.70;;
68985;SDS011;56035;37.534;-122.308;2023-04-24T04:28:01;24.83;;;4.85;;
68985;SDS011;56035;37.534;-122.308;2023-04-24T04:30:27;20.80;;;4.20;;
68985;SDS011;56035;37.534;-122.308;2023-04-24T04:32:57;20.80;;;4.50;;
68985;SDS011;56035;37.534;-122.308;2023-04-24T04:35:24;20.20;;;4.07;;
68985;SDS011;56035;37.534;-122.308;2023-04-24T04:37:50;24.65;;;4.53;;
68985;SDS011;56035;37.534;-122.308;2023-04-24T04:40:17;21.55;;;4.55;;
68985;SDS011;56035;37.534;-122.308;2023-04-24T04:42:43;23.92;;;3.88;;
68985;SDS011;56035;37.534;-122.308;2023-04-24T04:45:11;22.17;;;4.27;;
68985;SDS011;56035;37.534;-122.308;2023-04-24T04:47:37;19.10;;;3.92;;
68985;SDS011;56035;37.534;-122.308;2023-04-24T04:52:31;26.23;;;4.67;;
68985;SDS011;56035;37.534;-122.308;2023-04-24T04:54:57;18.00;;;4.05;;
68985;SDS011;56035;37.534;-122.308;2023-04-24T04:57:23;20.02;;;3.45;;
68985;SDS011;56035;37.534;-122.308;2023-04-24T04:59:50;21.10;;;4.28;;
68985;SDS011;56035;37.534;-122.308;2023-04-24T05:02:16;25.98;;;4.97;;
68985;SDS011;56035;37.534;-122.308;2023-04-24T05:04:42;22.73;;;5.13;;
68985;SDS011;56035;37.534;-122.308;2023-04-24T05:07:08;25.08;;;4.32;;
68985;SDS011;56035;37.534;-122.308;2023-04-24T05:09:34;29.52;;;4.97;;
68985;SDS011;56035;37.534;-122.308;2023-04-24T05:12:01;29.17;;;5.57;;
68985;SDS011;56035;37.534;-122.308;2023-04-24T05:14:27;23.42;;;5.03;;
68985;SDS011;56035;37.534;-122.308;2023-04-24T05:16:53;20.48;;;5.22;;
68985;SDS011;56035;37.534;-122.308;2023-04-24T05:19:20;25.63;;;4.53;;
68985;SDS011;56035;37.534;-122.308;2023-04-24T05:21:46;21.45;;;4.40;;
68985;SDS011;56035;37.534;-122.308;2023-04-24T05:24:12;24.75;;;4.72;;
68985;SDS011;56035;37.534;-122.308;2023-04-24T05:26:39;26.08;;;4.95;;
68985;SDS011;56035;37.534;-122.308;2023-04-24T05:29:05;24.27;;;5.10;;
68985;SDS011;56035;37.534;-122.308;2023-04-24T05:31:31;28.27;;;5.25;;
68985;SDS011;56035;37.534;-122.308;2023-04-24T05:33:58;24.75;;;5.20;;
68985;SDS011;56035;37.534;-122.308;2023-04-24T05:36:24;22.10;;;4.50;;
68985;SDS011;56035;37.534;-122.308;2023-04-24T05:38:50;32.70;;;4.88;;
68985;SDS011;56035;37.534;-122.308;2023-04-24T05:41:16;21.17;;;5.15;;
68985;SDS011;56035;37.534;-122.308;2023-04-24T05:43:42;21.98;;;5.38;;
68985;SDS011;56035;37.534;-122.308;2023-04-24T05:46:09;19.58;;;4.90;;
68985;SDS011;56035;37.534;-122.308;2023-04-24T05:48:35;21.42;;;4.40;;
68985;SDS011;56035;37.534;-122.308;2023-04-24T05:51:01;23.90;;;4.75;;
68985;SDS011;56035;37.534;-122.308;2023-04-24T05:53:27;21.63;;;4.70;;
68985;SDS011;56035;37.534;-122.308;2023-04-24T05:55:53;22.70;;;4.60;;
68985;SDS011;56035;37.534;-122.308;2023-04-24T05:58:20;25.08;;;5.68;;
68985;SDS011;56035;37.534;-122.308;2023-04-24T06:00:46;22.23;;;3.92;;
68985;SDS011;56035;37.534;-122.308;2023-04-24T06:03:13;20.67;;;4.43;;
68985;SDS011;56035;37.534;-122.308;2023-04-24T06:05:39;22.25;;;4.75;;
68985;SDS011;56035;37.534;-122.308;2023-04-24T06:08:05;24.02;;;5.03;;
68985;SDS011;56035;37.534;-122.308;2023-04-24T06:10:32;19.40;;;4.35;;
68985;SDS011;56035;37.534;-122.308;2023-04-24T06:12:58;21.88;;;4.35;;
68985;SDS011;56035;37.534;-122.308;2023-04-24T06:15:30;24.70;;;4.93;;
68985;SDS011;56035;37.534;-122.308;2023-04-24T06:17:57;22.97;;;4.57;;
68985;SDS011;56035;37.534;-122.308;2023-04-24T06:20:23;20.73;;;4.22;;
68985;SDS011;56035;37.534;-122.308;2023-04-24T06:22:50;23.63;;;4.63;;
68985;SDS011;56035;37.534;-122.308;2023-04-24T06:25:16;20.13;;;4.72;;
68985;SDS011;56035;37.534;-122.308;2023-04-24T06:27:42;24.98;;;5.97;;
68985;SDS011;56035;37.534;-122.308;2023-04-24T06:30:09;22.40;;;4.60;;
68985;SDS011;56035;37.534;-122.308;2023-04-24T06:32:35;23.92;;;3.92;;
68985;SDS011;56035;37.534;-122.308;2023-04-24T06:35:01;27.67;;;5.30;;
68985;SDS011;56035;37.534;-122.308;2023-04-24T06:37:28;20.45;;;4.43;;
68985;SDS011;56035;37.534;-122.308;2023-04-24T06:39:55;21.15;;;4.35;;
68985;SDS011;56035;37.534;-122.308;2023-04-24T06:42:21;24.85;;;5.15;;
68985;SDS011;56035;37.534;-122.308;2023-04-24T06:44:47;25.95;;;5.18;;
68985;SDS011;56035;37.534;-122.308;2023-04-24T06:47:13;23.85;;;4.95;;
68985;SDS011;56035;37.534;-122.308;2023-04-24T06:49:41;25.80;;;5.40;;
68985;SDS011;56035;37.534;-122.308;2023-04-24T06:52:08;29.33;;;5.10;;
68985;SDS011;56035;37.534;-122.308;2023-04-24T06:54:34;31.38;;;6.28;;
68985;SDS011;56035;37.534;-122.308;2023-04-24T06:57:25;27.17;;;4.83;;
68985;SDS011;56035;37.534;-122.308;2023-04-24T06:59:51;27.13;;;4.80;;
68985;SDS011;56035;37.534;-122.308;2023-04-24T07:02:18;26.08;;;5.45;;
68985;SDS011;56035;37.534;-122.308;2023-04-24T07:04:44;27.50;;;5.20;;
68985;SDS011;56035;37.534;-122.308;2023-04-24T07:07:12;23.97;;;5.20;;
68985;SDS011;56035;37.534;-122.308;2023-04-24T07:09:40;24.57;;;5.37;;
68985;SDS011;56035;37.534;-122.308;2023-04-24T07:12:10;27.43;;;6.00;;
68985;SDS011;56035;37.534;-122.308;2023-04-24T07:14:37;27.70;;;5.07;;
68985;SDS011;56035;37.534;-122.308;2023-04-24T07:17:04;24.80;;;4.35;;
68985;SDS011;56035;37.534;-122.308;2023-04-24T07:19:32;26.77;;;5.07;;
68985;SDS011;56035;37.534;-122.308;2023-04-24T07:22:00;24.03;;;4.80;;
68985;SDS011;56035;37.534;-122.308;2023-04-24T07:24:28;31.17;;;4.80;;
68985;SDS011;56035;37.534;-122.308;2023-04-24T07:26:57;27.17;;;5.00;;
68985;SDS011;56035;37.534;-122.308;2023-04-24T07:29:23;24.58;;;5.65;;
68985;SDS011;56035;37.534;-122.308;2023-04-24T07:31:50;32.15;;;6.38;;
68985;SDS011;56035;37.534;-122.308;2023-04-24T07:34:16;31.38;;;5.93;;
68985;SDS011;56035;37.534;-122.308;2023-04-24T07:36:42;28.58;;;5.65;;
68985;SDS011;56035;37.534;-122.308;2023-04-24T07:39:09;24.33;;;5.10;;
68985;SDS011;56035;37.534;-122.308;2023-04-24T07:41:35;20.48;;;4.90;;
68985;SDS011;56035;37.534;-122.308;2023-04-24T07:44:01;33.95;;;5.32;;
68985;SDS011;56035;37.534;-122.308;2023-04-24T07:46:27;31.60;;;5.82;;
68985;SDS011;56035;37.534;-122.308;2023-04-24T07:48:55;29.60;;;5.13;;
68985;SDS011;56035;37.534;-122.308;2023-04-24T07:51:22;23.08;;;5.25;;
68985;SDS011;56035;37.534;-122.308;2023-04-24T07:53:48;21.52;;;4.22;;
68985;SDS011;56035;37.534;-122.308;2023-04-24T07:56:15;21.92;;;4.60;;
68985;SDS011;56035;37.534;-122.308;2023-04-24T07:58:42;31.63;;;5.73;;
68985;SDS011;56035;37.534;-122.308;2023-04-24T08:01:08;36.33;;;5.55;;
68985;SDS011;56035;37.534;-122.308;2023-04-24T08:03:35;29.35;;;5.15;;
68985;SDS011;56035;37.534;-122.308;2023-04-24T08:06:01;28.02;;;5.22;;
68985;SDS011;56035;37.534;-122.308;2023-04-24T08:08:27;18.25;;;3.38;;
68985;SDS011;56035;37.534;-122.308;2023-04-24T08:10:54;31.95;;;5.70;;
68985;SDS011;56035;37.534;-122.308;2023-04-24T08:13:20;25.33;;;5.43;;
68985;SDS011;56035;37.534;-122.308;2023-04-24T08:15:46;24.45;;;4.93;;
68985;SDS011;56035;37.534;-122.308;2023-04-24T08:18:12;26.23;;;4.93;;
68985;SDS011;56035;37.534;-122.308;2023-04-24T08:20:41;31.97;;;5.47;;
68985;SDS011;56035;37.534;-122.308;2023-04-24T08:23:07;28.02;;;5.35;;
68985;SDS011;56035;37.534;-122.308;2023-04-24T08:25:33;24.05;;;5.57;;
68985;SDS011;56035;37.534;-122.308;2023-04-24T08:28:01;31.13;;;7.85;;
68985;SDS011;56035;37.534;-122.308;2023-04-24T08:30:29;30.77;;;5.07;;
68985;SDS011;56035;37.534;-122.308;2023-04-24T08:32:56;30.40;;;5.95;;
68985;SDS011;56035;37.534;-122.308;2023-04-24T08:35:22;25.52;;;4.95;;
68985;SDS011;56035;37.534;-122.308;2023-04-24T08:37:49;30.73;;;5.57;;
68985;SDS011;56035;37.534;-122.308;2023-04-24T08:40:16;29.58;;;6.20;;
68985;SDS011;56035;37.534;-122.308;2023-04-24T08:42:42;29.77;;;6.25;;
68985;SDS011;56035;37.534;-122.308;2023-04-24T08:47:37;22.73;;;4.87;;
68985;SDS011;56035;37.534;-122.308;2023-04-24T08:50:04;31.60;;;5.70;;
68985;SDS011;56035;37.534;-122.308;2023-04-24T08:52:34;30.05;;;5.95;;
68985;SDS011;56035;37.534;-122.308;2023-04-24T08:55:02;29.40;;;5.43;;
68985;SDS011;56035;37.534;-122.308;2023-04-24T08:57:28;24.00;;;5.10;;
68985;SDS011;56035;37.534;-122.308;2023-04-24T08:59:56;21.60;;;4.67;;
68985;SDS011;56035;37.534;-122.308;2023-04-24T09:02:24;27.00;;;5.93;;
68985;SDS011;56035;37.534;-122.308;2023-04-24T09:04:51;22.37;;;5.53;;
68985;SDS011;56035;37.534;-122.308;2023-04-24T09:07:19;22.77;;;5.30;;
68985;SDS011;56035;37.534;-122.308;2023-04-24T09:09:47;27.07;;;5.77;;
68985;SDS011;56035;37.534;-122.308;2023-04-24T09:12:16;22.93;;;4.73;;
68985;SDS011;56035;37.534;-122.308;2023-04-24T09:14:43;37.37;;;6.93;;
68985;SDS011;56035;37.534;-122.308;2023-04-24T09:17:11;25.13;;;5.13;;
68985;SDS011;56035;37.534;-122.308;2023-04-24T09:19:37;28.95;;;5.47;;
68985;SDS011;56035;37.534;-122.308;2023-04-24T09:22:07;25.55;;;5.70;;
68985;SDS011;56035;37.534;-122.308;2023-04-24T09:24:34;29.63;;;5.77;;
68985;SDS011;56035;37.534;-122.308;2023-04-24T09:27:01;26.88;;;4.93;;
68985;SDS011;56035;37.534;-122.308;2023-04-24T09:29:29;20.40;;;4.97;;
68985;SDS011;56035;37.534;-122.308;2023-04-24T09:31:55;24.23;;;5.53;;
68985;SDS011;56035;37.534;-122.308;2023-04-24T09:34:22;22.55;;;5.20;;
68985;SDS011;56035;37.534;-122.308;2023-04-24T09:36:49;20.27;;;4.50;;
68985;SDS011;56035;37.534;-122.308;2023-04-24T09:39:16;22.87;;;4.87;;
68985;SDS011;56035;37.534;-122.308;2023-04-24T09:41:47;21.53;;;4.87;;
68985;SDS011;56035;37.534;-122.308;2023-04-24T09:44:19;30.87;;;5.20;;
68985;SDS011;56035;37.534;-122.308;2023-04-24T09:46:50;27.50;;;5.93;;
68985;SDS011;56035;37.534;-122.308;2023-04-24T09:49:21;31.87;;;5.63;;
68985;SDS011;56035;37.534;-122.308;2023-04-24T09:51:51;25.20;;;5.77;;
68985;SDS011;56035;37.534;-122.308;2023-04-24T09:54:27;26.70;;;5.60;;
68985;SDS011;56035;37.534;-122.308;2023-04-24T09:56:55;33.23;;;5.87;;
68985;SDS011;56035;37.534;-122.308;2023-04-24T09:59:21;34.00;;;7.07;;
68985;SDS011;56035;37.534;-122.308;2023-04-24T10:01:48;34.95;;;6.90;;
68985;SDS011;56035;37.534;-122.308;2023-04-24T10:04:15;30.20;;;6.57;;
68985;SDS011;56035;37.534;-122.308;2023-04-24T10:06:50;35.27;;;6.77;;
68985;SDS011;56035;37.534;-122.308;2023-04-24T10:09:18;25.50;;;6.37;;
68985;SDS011;56035;37.534;-122.308;2023-04-24T10:11:48;26.80;;;7.13;;
68985;SDS011;56035;37.534;-122.308;2023-04-24T10:14:17;23.90;;;6.30;;
68985;SDS011;56035;37.534;-122.308;2023-04-24T10:16:46;29.40;;;5.57;;
68985;SDS011;56035;37.534;-122.308;2023-04-24T10:19:13;27.65;;;6.47;;
68985;SDS011;56035;37.534;-122.308;2023-04-24T10:21:41;20.30;;;5.07;;
68985;SDS011;56035;37.534;-122.308;2023-04-24T10:24:15;26.57;;;5.70;;
68985;SDS011;56035;37.534;-122.308;2023-04-24T10:26:43;30.50;;;6.13;;
68985;SDS011;56035;37.534;-122.308;2023-04-24T10:29:13;27.63;;;5.77;;
68985;SDS011;56035;37.534;-122.308;2023-04-24T10:31:40;30.03;;;7.20;;
68985;SDS011;56035;37.534;-122.308;2023-04-24T10:34:09;33.97;;;7.63;;
68985;SDS011;56035;37.534;-122.308;2023-04-24T10:36:36;34.93;;;7.53;;
68985;SDS011;56035;37.534;-122.308;2023-04-24T10:39:08;30.70;;;7.47;;
68985;SDS011;56035;37.534;-122.308;2023-04-24T10:41:36;32.57;;;7.93;;
68985;SDS011;56035;37.534;-122.308;2023-04-24T10:44:04;31.87;;;6.73;;
68985;SDS011;56035;37.534;-122.308;2023-04-24T10:46:35;39.13;;;7.47;;
68985;SDS011;56035;37.534;-122.308;2023-04-24T10:49:05;27.10;;;7.13;;
68985;SDS011;56035;37.534;-122.308;2023-04-24T10:54:36;28.77;;;7.72;;
68985;SDS011;56035;37.534;-122.308;2023-04-24T11:00:14;26.40;;;6.67;;
68985;SDS011;56035;37.534;-122.308;2023-04-24T11:02:45;37.40;;;8.57;;
68985;SDS011;56035;37.534;-122.308;2023-04-24T11:05:18;26.33;;;6.57;;
68985;SDS011;56035;37.534;-122.308;2023-04-24T11:10:44;24.97;;;6.53;;
68985;SDS011;56035;37.534;-122.308;2023-04-24T11:21:44;28.10;;;6.60;;
68985;SDS011;56035;37.534;-122.308;2023-04-24T11:24:24;28.17;;;7.53;;
68985;SDS011;56035;37.534;-122.308;2023-04-24T11:32:27;33.50;;;7.83;;
68985;SDS011;56035;37.534;-122.308;2023-04-24T11:35:01;34.43;;;7.53;;
68985;SDS011;56035;37.534;-122.308;2023-04-24T11:37:38;31.57;;;6.67;;
68985;SDS011;56035;37.534;-122.308;2023-04-24T11:40:06;31.25;;;6.60;;
68985;SDS011;56035;37.534;-122.308;2023-04-24T11:42:43;30.57;;;6.77;;
68985;SDS011;56035;37.534;-122.308;2023-04-24T11:45:14;35.42;;;7.15;;
68985;SDS011;56035;37.534;-122.308;2023-04-24T11:47:41;25.90;;;6.40;;
68985;SDS011;56035;37.534;-122.308;2023-04-24T11:50:10;32.23;;;7.90;;
68985;SDS011;56035;37.534;-122.308;2023-04-24T11:52:40;31.50;;;7.57;;
68985;SDS011;56035;37.534;-122.308;2023-04-24T11:55:08;30.97;;;7.13;;
68985;SDS011;56035;37.534;-122.308;2023-04-24T11:57:55;39.10;;;9.17;;
68985;SDS011;56035;37.534;-122.308;2023-04-24T12:00:26;36.83;;;8.10;;
68985;SDS011;56035;37.534;-122.308;2023-04-24T12:05:50;34.93;;;7.27;;
68985;SDS011;56035;37.534;-122.308;2023-04-24T12:08:28;27.45;;;7.38;;
68985;SDS011;56035;37.534;-122.308;2023-04-24T12:10:55;39.50;;;8.83;;
68985;SDS011;56035;37.534;-122.308;2023-04-24T12:13:21;36.17;;;8.80;;
68985;SDS011;56035;37.534;-122.308;2023-04-24T12:15:47;33.58;;;7.60;;
68985;SDS011;56035;37.534;-122.308;2023-04-24T12:18:16;35.17;;;7.97;;
68985;SDS011;56035;37.534;-122.308;2023-04-24T12:20:42;33.63;;;7.75;;
68985;SDS011;56035;37.534;-122.308;2023-04-24T12:23:08;37.35;;;7.75;;
68985;SDS011;56035;37.534;-122.308;2023-04-24T12:25:35;36.92;;;7.93;;
68985;SDS011;56035;37.534;-122.308;2023-04-24T12:30:31;32.63;;;8.03;;
68985;SDS011;56035;37.534;-122.308;2023-04-24T12:32:59;31.50;;;7.17;;
68985;SDS011;56035;37.534;-122.308;2023-04-24T12:35:27;34.22;;;7.38;;
68985;SDS011;56035;37.534;-122.308;2023-04-24T12:37:54;28.83;;;6.90;;
68985;SDS011;56035;37.534;-122.308;2023-04-24T12:40:21;31.17;;;7.45;;
68985;SDS011;56035;37.534;-122.308;2023-04-24T12:42:50;30.03;;;6.23;;
68985;SDS011;56035;37.534;-122.308;2023-04-24T12:45:17;25.77;;;6.07;;
68985;SDS011;56035;37.534;-122.308;2023-04-24T12:47:45;30.57;;;7.30;;
68985;SDS011;56035;37.534;-122.308;2023-04-24T12:50:12;29.93;;;7.73;;
68985;SDS011;56035;37.534;-122.308;2023-04-24T12:52:40;23.93;;;6.40;;
68985;SDS011;56035;37.534;-122.308;2023-04-24T12:55:07;30.40;;;7.27;;
68985;SDS011;56035;37.534;-122.308;2023-04-24T13:00:01;22.63;;;6.00;;
68985;SDS011;56035;37.534;-122.308;2023-04-24T13:02:29;25.47;;;7.50;;
68985;SDS011;56035;37.534;-122.308;2023-04-24T13:04:56;38.97;;;7.93;;
68985;SDS011;56035;37.534;-122.308;2023-04-24T13:07:24;31.73;;;8.40;;
68985;SDS011;56035;37.534;-122.308;2023-04-24T13:12:35;27.53;;;6.47;;
68985;SDS011;56035;37.534;-122.308;2023-04-24T13:15:02;31.00;;;7.72;;
68985;SDS011;56035;37.534;-122.308;2023-04-24T13:17:28;41.95;;;8.38;;
68985;SDS011;56035;37.534;-122.308;2023-04-24T13:19:55;32.75;;;7.28;;
68985;SDS011;56035;37.534;-122.308;2023-04-24T13:22:21;35.28;;;7.85;;
68985;SDS011;56035;37.534;-122.308;2023-04-24T13:24:47;28.98;;;6.82;;
68985;SDS011;56035;37.534;-122.308;2023-04-24T13:27:15;25.73;;;7.18;;
68985;SDS011;56035;37.534;-122.308;2023-04-24T13:29:41;29.15;;;7.82;;
68985;SDS011;56035;37.534;-122.308;2023-04-24T13:32:07;29.55;;;7.10;;
68985;SDS011;56035;37.534;-122.308;2023-04-24T13:34:34;32.45;;;7.40;;
68985;SDS011;56035;37.534;-122.308;2023-04-24T13:37:02;29.03;;;8.10;;
68985;SDS011;56035;37.534;-122.308;2023-04-24T13:39:29;40.73;;;7.30;;
68985;SDS011;56035;37.534;-122.308;2023-04-24T13:41:56;33.45;;;7.75;;
68985;SDS011;56035;37.534;-122.308;2023-04-24T13:44:24;28.13;;;8.00;;
68985;SDS011;56035;37.534;-122.308;2023-04-24T13:46:51;28.38;;;7.10;;
68985;SDS011;56035;37.534;-122.308;2023-04-24T13:49:19;30.60;;;7.40;;
68985;SDS011;56035;37.534;-122.308;2023-04-24T13:51:46;27.83;;;7.40;;
68985;SDS011;56035;37.534;-122.308;2023-04-24T13:54:13;28.77;;;7.15;;
68985;SDS011;56035;37.534;-122.308;2023-04-24T13:56:39;30.80;;;6.85;;
68985;SDS011;56035;37.534;-122.308;2023-04-24T13:59:06;38.05;;;8.23;;
68985;SDS011;56035;37.534;-122.308;2023-04-24T14:01:33;38.37;;;8.70;;
68985;SDS011;56035;37.534;-122.308;2023-04-24T14:04:00;33.88;;;7.90;;
68985;SDS011;56035;37.534;-122.308;2023-04-24T14:06:27;40.60;;;8.75;;
68985;SDS011;56035;37.534;-122.308;2023-04-24T14:08:53;28.88;;;8.13;;
68985;SDS011;56035;37.534;-122.308;2023-04-24T14:11:19;31.60;;;7.15;;
68985;SDS011;56035;37.534;-122.308;2023-04-24T14:13:46;37.05;;;7.78;;
68985;SDS011;56035;37.534;-122.308;2023-04-24T14:16:12;30.60;;;7.05;;
68985;SDS011;56035;37.534;-122.308;2023-04-24T14:18:39;38.30;;;7.87;;
68985;SDS011;56035;37.534;-122.308;2023-04-24T14:21:06;31.40;;;8.13;;
68985;SDS011;56035;37.534;-122.308;2023-04-24T14:23:32;30.08;;;7.45;;
68985;SDS011;56035;37.534;-122.308;2023-04-24T14:25:59;35.22;;;8.23;;
68985;SDS011;56035;37.534;-122.308;2023-04-24T14:28:25;29.67;;;7.47;;
68985;SDS011;56035;37.534;-122.308;2023-04-24T14:30:52;23.88;;;6.75;;
68985;SDS011;56035;37.534;-122.308;2023-04-24T14:33:18;24.70;;;6.53;;
68985;SDS011;56035;37.534;-122.308;2023-04-24T14:35:45;33.55;;;7.90;;
68985;SDS011;56035;37.534;-122.308;2023-04-24T14:38:12;28.13;;;8.73;;
68985;SDS011;56035;37.534;-122.308;2023-04-24T14:40:40;21.97;;;6.23;;
68985;SDS011;56035;37.534;-122.308;2023-04-24T14:43:06;28.08;;;6.90;;